TimeEST,TemperatureF,Dew PointF,Humidity,Sea Level PressureIn,VisibilityMPH,Wind Direction,Wind SpeedMPH,Gust SpeedMPH,PrecipitationIn,Events,Conditions,WindDirDegrees,DateUTC
12:15 AM,33.3,33.3,100,30.27,2.5,Calm,Calm,-,N/A,,Clear,0,2013-01-04 05:15:00
12:35 AM,32.5,32.5,100,30.27,3.0,Calm,Calm,-,N/A,,Clear,0,2013-01-04 05:35:00
12:55 AM,32.0,32.0,100,30.27,3.0,Calm,Calm,-,N/A,,Clear,0,2013-01-04 05:55:00
1:15 AM,31.8,31.8,100,30.26,3.0,Calm,Calm,-,N/A,,Clear,0,2013-01-04 06:15:00
1:35 AM,30.7,30.7,100,30.27,4.0,Calm,Calm,-,N/A,,Clear,0,2013-01-04 06:35:00
1:55 AM,30.2,30.2,100,30.28,3.0,Calm,Calm,-,N/A,,Clear,0,2013-01-04 06:55:00
2:15 AM,29.7,29.7,100,30.29,3.0,Calm,Calm,-,N/A,,Clear,0,2013-01-04 07:15:00
2:35 AM,29.3,29.3,100,30.29,1.0,Calm,Calm,-,N/A,,Mist,0,2013-01-04 07:35:00
2:55 AM,29.5,29.5,100,30.29,0.2,Calm,Calm,-,N/A,Fog,Light Freezing Fog,0,2013-01-04 07:55:00
3:15 AM,29.1,29.1,100,30.29,1.0,Calm,Calm,-,N/A,,Mist,0,2013-01-04 08:15:00
3:35 AM,28.6,28.6,100,30.28,3.0,Calm,Calm,-,N/A,,Clear,0,2013-01-04 08:35:00
3:55 AM,28.0,28.0,100,30.28,5.0,Calm,Calm,-,N/A,,Clear,0,2013-01-04 08:55:00
4:15 AM,28.6,28.6,100,30.28,4.0,Calm,Calm,-,N/A,,Clear,0,2013-01-04 09:15:00
7:15 AM,26.1,26.1,100,30.31,5.0,Calm,Calm,-,N/A,,Clear,0,2013-01-04 12:15:00
7:35 AM,26.4,26.4,100,30.31,3.0,Calm,Calm,-,N/A,,Clear,0,2013-01-04 12:35:00
8:15 AM,28.2,28.2,100,30.32,3.0,Calm,Calm,-,N/A,,Clear,0,2013-01-04 13:15:00
8:35 AM,29.5,29.5,100,30.32,4.0,Calm,Calm,-,N/A,,Clear,0,2013-01-04 13:35:00
8:55 AM,31.1,31.1,100,30.33,4.0,Calm,Calm,-,N/A,,Clear,0,2013-01-04 13:55:00
9:15 AM,32.2,32.2,100,30.34,7.0,Calm,Calm,-,N/A,,Clear,0,2013-01-04 14:15:00
9:35 AM,33.1,33.1,100,30.34,7.0,WNW,3.5,-,N/A,,Clear,290,2013-01-04 14:35:00
9:55 AM,35.6,35.6,100,30.34,10.0,NW,3.5,-,N/A,,Clear,310,2013-01-04 14:55:00
10:15 AM,38.3,34.3,86,30.34,10.0,NW,3.5,-,N/A,,Clear,320,2013-01-04 15:15:00
10:35 AM,39.9,32.0,73,30.35,10.0,WNW,5.8,-,N/A,,Clear,300,2013-01-04 15:35:00
10:55 AM,42.4,32.4,68,30.34,10.0,NNW,6.9,-,N/A,,Clear,340,2013-01-04 15:55:00
11:15 AM,43.0,27.9,55,30.33,10.0,NNW,8.1,-,N/A,,Clear,330,2013-01-04 16:15:00
11:35 AM,43.7,28.4,55,30.32,10.0,North,6.9,-,N/A,,Clear,360,2013-01-04 16:35:00
11:55 AM,45.0,28.6,53,30.30,10.0,NNW,4.6,-,N/A,,Clear,340,2013-01-04 16:55:00
12:15 PM,46.2,27.5,48,30.29,10.0,West,10.4,-,N/A,,Clear,280,2013-01-04 17:15:00
12:35 PM,46.2,27.0,47,30.28,10.0,NNW,6.9,-,N/A,,Clear,330,2013-01-04 17:35:00
12:55 PM,48.0,28.6,47,30.28,10.0,WNW,6.9,-,N/A,,Clear,300,2013-01-04 17:55:00
1:15 PM,48.9,28.0,44,30.27,10.0,WSW,12.7,18.4,N/A,,Clear,250,2013-01-04 18:15:00
1:35 PM,49.5,28.6,45,30.26,10.0,West,9.2,-,N/A,,Clear,260,2013-01-04 18:35:00
1:55 PM,50.2,29.1,44,30.25,10.0,WNW,6.9,-,N/A,,Clear,290,2013-01-04 18:55:00
2:15 PM,50.2,29.3,45,30.24,10.0,SW,10.4,-,N/A,,Clear,230,2013-01-04 19:15:00
2:35 PM,50.9,29.3,43,30.23,10.0,West,8.1,-,N/A,,Clear,260,2013-01-04 19:35:00
2:55 PM,50.9,28.8,43,30.23,10.0,WNW,8.1,-,N/A,,Clear,290,2013-01-04 19:55:00
3:15 PM,51.1,28.9,43,30.22,10.0,WSW,5.8,-,N/A,,Clear,250,2013-01-04 20:15:00
3:35 PM,51.3,29.1,43,30.23,10.0,SW,9.2,-,N/A,,Clear,230,2013-01-04 20:35:00
3:55 PM,51.3,28.9,42,30.23,10.0,WSW,8.1,-,N/A,,Clear,240,2013-01-04 20:55:00
4:15 PM,51.3,29.5,43,30.23,10.0,West,10.4,-,N/A,,Clear,270,2013-01-04 21:15:00
4:35 PM,50.4,30.0,46,30.23,10.0,West,8.1,-,N/A,,Clear,260,2013-01-04 21:35:00
4:55 PM,49.6,30.9,49,30.23,10.0,West,4.6,-,N/A,,Clear,280,2013-01-04 21:55:00
5:15 PM,48.2,31.3,52,30.23,10.0,West,4.6,-,N/A,,Clear,280,2013-01-04 22:15:00
5:35 PM,47.3,31.3,54,30.24,10.0,West,3.5,-,N/A,,Clear,270,2013-01-04 22:35:00
5:55 PM,45.7,31.3,57,30.24,10.0,SW,5.8,-,N/A,,Clear,220,2013-01-04 22:55:00
6:35 PM,43.3,32.0,64,30.27,10.0,West,5.8,-,N/A,,Clear,280,2013-01-04 23:35:00
6:55 PM,43.2,32.0,65,30.27,10.0,WSW,4.6,-,N/A,,Clear,250,2013-01-04 23:55:00
7:15 PM,41.0,32.0,70,30.27,10.0,WSW,5.8,-,N/A,,Clear,250,2013-01-05 00:15:00
7:35 PM,41.5,32.0,69,30.28,10.0,West,3.5,-,N/A,,Clear,260,2013-01-05 00:35:00
7:55 PM,41.4,32.0,69,30.29,10.0,West,3.5,-,N/A,,Clear,260,2013-01-05 00:55:00
8:15 PM,41.2,32.0,70,30.29,10.0,WSW,3.5,-,N/A,,Clear,250,2013-01-05 01:15:00
8:35 PM,40.6,31.5,70,30.29,10.0,WSW,3.5,-,N/A,,Clear,250,2013-01-05 01:35:00
8:55 PM,40.3,31.8,72,30.29,10.0,West,3.5,-,N/A,,Clear,260,2013-01-05 01:55:00
9:15 PM,38.5,31.6,76,30.30,10.0,WNW,5.8,-,N/A,,Clear,290,2013-01-05 02:15:00
9:35 PM,40.1,31.3,71,30.30,10.0,WNW,4.6,-,N/A,,Clear,300,2013-01-05 02:35:00
9:55 PM,39.9,30.7,70,30.30,10.0,NW,3.5,-,N/A,,Clear,310,2013-01-05 02:55:00
10:15 PM,38.5,30.2,72,30.31,10.0,NW,3.5,-,N/A,,Clear,310,2013-01-05 03:15:00
10:35 PM,38.5,29.8,71,30.31,10.0,Calm,Calm,-,N/A,,Clear,0,2013-01-05 03:35:00
10:55 PM,37.8,29.5,72,30.32,10.0,NNW,3.5,-,N/A,,Clear,330,2013-01-05 03:55:00
11:15 PM,37.4,28.8,71,30.32,10.0,Calm,Calm,-,N/A,,Clear,0,2013-01-05 04:15:00
11:35 PM,36.9,27.5,69,30.32,10.0,Calm,Calm,-,N/A,,Clear,0,2013-01-05 04:35:00
11:55 PM,36.1,27.1,70,30.32,10.0,NNW,3.5,-,N/A,,Clear,340,2013-01-05 04:55:00